Time;durP1;ratioP1;P1;durP2;ratioP2;P2;SDS_P1;SDS_P2;PMS_P1;PMS_P2;Temp;Humidity;BMP_temperature;BMP_pressure;BME280_temperature;BME280_humidity;BME280_pressure;Samples;Min_cycle;Max_cycle;Signal;HPM_P1;HPM_P2
2022/01/25 00:33:35;;;;;;;15.20;9.60;;;;;;;-5.56;74.90;101034.64;1715454;83;21567;-76
2022/01/25 00:36:03;;;;;;;13.53;9.33;;;;;;;-5.61;74.84;101027.09;1690408;83;21060;-79
2022/01/25 00:38:30;;;;;;;14.07;7.53;;;;;;;-5.64;75.07;101031.27;1669795;83;20994;-72
2022/01/25 00:40:56;;;;;;;32.23;17.27;;;;;;;-5.59;75.10;101030.45;1718279;83;21485;-79
2022/01/25 00:43:26;;;;;;;20.67;10.53;;;;;;;-5.51;75.12;101033.33;1725375;82;20951;-73
2022/01/25 00:45:59;;;;;;;15.97;9.27;;;;;;;-5.55;74.95;101025.34;1725289;83;21520;-78
2022/01/25 00:48:41;;;;;;;18.00;10.47;;;;;;;-5.58;74.97;101029.51;1723328;83;21046;-68
2022/01/25 00:51:18;;;;;;;17.17;9.67;;;;;;;-5.70;75.02;101027.77;1701745;83;20953;-70
2022/01/25 00:56:13;;;;;;;26.47;15.30;;;;;;;-5.84;75.43;101024.86;1719553;83;21557;-83
2022/01/25 00:58:40;;;;;;;15.57;9.17;;;;;;;-5.87;75.58;101017.27;1740335;82;22308;-72
2022/01/25 01:01:06;;;;;;;19.77;10.40;;;;;;;-5.86;75.70;101016.30;1725374;83;21070;-71
2022/01/25 01:03:32;;;;;;;16.30;9.63;;;;;;;-5.83;75.63;101023.92;1676354;83;21039;-74
2022/01/25 01:05:58;;;;;;;14.03;8.43;;;;;;;-5.77;75.56;101006.92;1672366;83;21696;-78
2022/01/25 01:08:25;;;;;;;11.00;7.77;;;;;;;-5.73;75.29;101028.85;1717749;83;22192;-75
2022/01/25 01:10:51;;;;;;;13.13;8.73;;;;;;;-5.71;75.09;101010.41;1716293;83;20965;-76
2022/01/25 01:16:06;;;;;;;10.07;7.00;;;;;;;-5.79;74.80;101007.50;1717133;83;21601;-72
2022/01/25 01:29:18;;;;;;;11.57;7.13;;;;;;;-5.85;74.28;101014.02;1697441;83;21589;-70
2022/01/25 01:31:59;;;;;;;10.13;7.30;;;;;;;-5.85;74.14;101012.71;1699480;83;21006;-72
2022/01/25 01:37:24;;;;;;;9.17;7.13;;;;;;;-6.02;74.04;101007.91;1717358;83;20133;-74
2022/01/25 01:40:04;;;;;;;9.83;6.80;;;;;;;-6.04;74.31;101008.48;1708871;83;21043;-71
2022/01/25 01:47:20;;;;;;;13.53;7.80;;;;;;;-5.86;74.46;101015.47;1676543;83;21350;-77
2022/01/25 01:49:43;;;;;;;11.47;7.83;;;;;;;-5.85;74.46;101010.09;1694726;83;21282;-76
2022/01/25 01:52:08;;;;;;;13.47;8.60;;;;;;;-5.88;74.43;101007.73;1704998;83;21514;-74
2022/01/25 01:54:35;;;;;;;14.83;7.93;;;;;;;-5.91;74.31;101010.59;1717152;83;21077;-76
2022/01/25 01:57:02;;;;;;;10.40;8.23;;;;;;;-5.99;74.57;101008.98;1717201;83;21063;-74
2022/01/25 01:59:28;;;;;;;11.77;8.23;;;;;;;-6.05;74.82;101004.69;1714951;83;21152;-73
2022/01/25 02:01:54;;;;;;;11.77;7.40;;;;;;;-6.06;74.99;100998.61;1699086;83;20970;-80
2022/01/25 02:04:21;;;;;;;10.63;7.37;;;;;;;-6.06;75.00;101007.77;1670310;84;21145;-75
2022/01/25 02:06:48;;;;;;;14.17;6.63;;;;;;;-6.09;74.95;101009.79;1710795;83;21052;-75
2022/01/25 02:09:14;;;;;;;11.40;6.47;;;;;;;-6.07;75.12;101000.02;1728610;83;21602;-77
2022/01/25 02:11:41;;;;;;;11.63;8.40;;;;;;;-6.09;75.03;101002.73;1703024;83;21050;-75
2022/01/25 02:14:09;;;;;;;10.60;8.17;;;;;;;-6.05;75.22;100996.83;1672467;84;21041;-75
2022/01/25 02:24:41;;;;;;;10.53;6.97;;;;;;;-5.90;74.83;100995.72;1722705;83;21154;-74
2022/01/25 02:27:08;;;;;;;9.70;8.03;;;;;;;-5.90;74.73;100992.59;1697408;83;21041;-73
2022/01/25 02:29:34;;;;;;;13.03;7.17;;;;;;;-5.87;74.88;100983.69;1718164;83;21046;-74
2022/01/25 02:32:01;;;;;;;10.20;7.03;;;;;;;-5.85;74.81;100997.50;1707580;83;21020;-73
2022/01/25 02:34:27;;;;;;;10.80;7.13;;;;;;;-5.91;74.73;100990.95;1703914;84;21124;-74
2022/01/25 02:37:10;;;;;;;10.33;7.17;;;;;;;-5.91;74.94;100996.19;1711517;83;21139;-73
2022/01/25 02:39:37;;;;;;;10.50;7.40;;;;;;;-5.94;74.95;100986.39;1691825;83;21059;-76
2022/01/25 02:42:06;;;;;;;11.47;7.17;;;;;;;-5.92;75.19;100974.03;1717779;83;21025;-73
2022/01/25 02:44:35;;;;;;;19.67;7.23;;;;;;;-5.88;75.37;100971.07;1636876;83;20937;-73
2022/01/25 02:49:33;;;;;;;13.97;8.17;;;;;;;-5.93;75.39;100964.02;1717373;83;21113;-74
2022/01/25 02:52:02;;;;;;;12.43;7.03;;;;;;;-5.95;75.68;100956.77;1703624;83;20947;-75
2022/01/25 02:54:29;;;;;;;9.63;6.73;;;;;;;-5.96;75.81;100958.19;1697868;84;20970;-71
2022/01/25 02:56:55;;;;;;;12.73;8.53;;;;;;;-5.97;75.81;100970.44;1698721;82;21582;-74
2022/01/25 02:59:21;;;;;;;10.87;7.53;;;;;;;-5.99;76.00;100969.70;1716754;83;21016;-74
2022/01/25 03:01:49;;;;;;;9.23;6.53;;;;;;;-5.94;76.17;100964.96;1725246;81;21220;-75
2022/01/25 03:04:19;;;;;;;11.43;8.13;;;;;;;-5.93;76.17;100960.56;1724761;83;20963;-75
2022/01/25 03:06:45;;;;;;;11.23;7.70;;;;;;;-5.88;76.37;100956.66;1715922;83;20957;-74
2022/01/25 03:09:14;;;;;;;13.87;7.83;;;;;;;-5.78;76.27;100959.41;1693534;83;21033;-75
2022/01/25 03:11:40;;;;;;;11.13;8.10;;;;;;;-5.73;76.26;100958.11;1693350;83;21374;-74
2022/01/25 03:14:10;;;;;;;12.63;7.93;;;;;;;-5.73;76.16;100963.35;1635126;83;21026;-77
2022/01/25 03:16:45;;;;;;;9.70;7.03;;;;;;;-5.89;76.31;100962.00;1706689;82;20983;-77
2022/01/25 03:21:56;;;;;;;16.83;8.40;;;;;;;-6.02;76.89;100943.75;1735646;82;21012;-76
2022/01/25 03:24:22;;;;;;;9.77;6.63;;;;;;;-5.97;77.06;100935.09;1735366;82;21310;-76
2022/01/25 03:26:48;;;;;;;16.67;9.80;;;;;;;-6.02;76.97;100931.13;1720285;82;21108;-74
2022/01/25 03:29:15;;;;;;;16.43;9.00;;;;;;;-6.06;77.04;100929.69;1720097;82;21009;-74
2022/01/25 03:31:41;;;;;;;20.30;10.60;;;;;;;-6.12;77.03;100914.42;1723766;82;21046;-76
2022/01/25 03:34:08;;;;;;;45.07;20.50;;;;;;;-6.22;77.14;100912.95;1724953;83;21519;-75
2022/01/25 03:36:34;;;;;;;79.40;33.57;;;;;;;-6.24;77.18;100917.48;1721223;83;21290;-75
2022/01/25 03:39:00;;;;;;;105.07;41.57;;;;;;;-6.23;77.45;100902.13;1669660;83;22324;-75
2022/01/25 03:41:26;;;;;;;137.57;52.57;;;;;;;-6.22;77.59;100897.25;1717601;83;21033;-76
2022/01/25 03:43:55;;;;;;;90.23;39.67;;;;;;;-6.23;77.58;100899.50;1717753;83;21526;-75
2022/01/25 03:46:37;;;;;;;48.77;24.03;;;;;;;-6.25;77.55;100894.87;1703300;83;21018;-75
2022/01/25 03:51:44;;;;;;;51.90;25.70;;;;;;;-6.36;77.64;100894.81;1758918;80;21587;-76
2022/01/25 03:54:10;;;;;;;54.27;25.97;;;;;;;-6.27;77.87;100887.59;1758831;80;21001;-76
2022/01/25 03:56:36;;;;;;;36.77;17.17;;;;;;;-6.24;77.78;100889.53;1749524;81;20977;-78
2022/01/25 03:59:05;;;;;;;28.10;16.63;;;;;;;-6.20;77.68;100891.44;1721386;82;21015;-77
2022/01/25 04:01:34;;;;;;;36.00;18.97;;;;;;;-6.29;77.55;100889.50;1743109;82;20978;-77
2022/01/25 04:04:04;;;;;;;36.40;21.17;;;;;;;-6.30;77.74;100877.36;1727209;83;21756;-77
2022/01/25 04:06:31;;;;;;;38.70;18.93;;;;;;;-6.30;77.70;100879.51;1726827;83;21031;-78
2022/01/25 04:08:59;;;;;;;32.97;18.37;;;;;;;-6.29;77.78;100870.71;1726314;82;21441;-76
2022/01/25 04:11:25;;;;;;;51.30;24.37;;;;;;;-6.28;77.71;100874.98;1703569;83;20978;-75
2022/01/25 04:13:53;;;;;;;42.97;18.70;;;;;;;-6.25;77.79;100866.08;1727849;82;21038;-76
2022/01/25 04:16:25;;;;;;;29.27;14.00;;;;;;;-6.20;77.77;100866.57;1716028;82;21776;-76
2022/01/25 04:26:52;;;;;;;19.23;9.37;;;;;;;-6.61;77.98;100868.28;1705287;83;20995;-74
2022/01/25 04:29:18;;;;;;;14.50;9.37;;;;;;;-6.70;78.23;100868.48;1713943;82;21461;-76
2022/01/25 04:31:45;;;;;;;11.70;7.67;;;;;;;-6.77;78.40;100866.44;1693833;83;20951;-76
2022/01/25 04:50:31;;;;;;;20.97;10.27;;;;;;;-7.03;79.38;100871.37;1672100;83;21047;-80
2022/01/25 04:52:54;;;;;;;10.67;7.50;;;;;;;-7.00;79.44;100863.33;1690892;83;21048;-81
2022/01/25 04:55:22;;;;;;;15.73;7.60;;;;;;;-6.97;79.41;100868.33;1714920;83;21742;-79
2022/01/25 04:57:55;;;;;;;17.23;10.20;;;;;;;-7.02;79.33;100859.50;1712496;83;21524;-80
2022/01/25 05:00:20;;;;;;;18.50;12.40;;;;;;;-7.00;79.45;100859.41;1712937;83;21055;-78
2022/01/25 05:02:54;;;;;;;15.70;10.77;;;;;;;-6.95;79.41;100858.11;1698636;83;21044;-79
2022/01/25 05:05:37;;;;;;;12.23;7.63;;;;;;;-6.93;79.35;100856.23;1688579;84;21046;-78
2022/01/25 05:08:14;;;;;;;15.47;9.17;;;;;;;-6.83;79.44;100857.72;1671709;84;21175;-79
2022/01/25 05:10:33;;;;;;;10.77;7.47;;;;;;;-6.73;79.28;100851.72;1697363;83;21533;-91
2022/01/25 05:18:18;;;;;;;13.10;9.40;;;;;;;-6.63;78.91;100850.58;1714123;83;21010;-75
2022/01/25 05:23:29;;;;;;;11.93;8.13;;;;;;;-6.36;78.73;100839.38;1705225;83;20943;-76
2022/01/25 05:25:56;;;;;;;9.53;6.87;;;;;;;-6.33;78.35;100837.03;1664463;85;21587;-74
2022/01/25 05:28:22;;;;;;;19.57;9.83;;;;;;;-6.27;78.15;100836.08;1690672;83;21690;-77
2022/01/25 05:30:48;;;;;;;21.17;10.30;;;;;;;-6.31;77.87;100837.27;1700054;83;21531;-76
2022/01/25 05:33:17;;;;;;;21.90;10.53;;;;;;;-6.28;78.03;100834.41;1688709;83;21780;-80
2022/01/25 05:35:44;;;;;;;13.97;9.67;;;;;;;-6.22;77.93;100837.88;1667578;85;21104;-78
2022/01/25 05:38:10;;;;;;;15.20;9.70;;;;;;;-6.16;77.73;100833.98;1687688;84;21012;-77
2022/01/25 05:40:43;;;;;;;13.20;9.30;;;;;;;-6.12;77.72;100829.34;1702916;83;20981;-76
2022/01/25 05:44:03;;;;;;;9.53;6.63;;;;;;;-6.11;77.48;100823.16;1697398;83;21101;-74
2022/01/25 05:46:03;;;;;;;9.00;5.93;;;;;;;-6.03;77.23;100824.23;1708556;83;21124;-74
2022/01/25 05:48:28;;;;;;;6.63;5.40;;;;;;;-6.06;76.42;100836.73;1694097;83;21003;-75
2022/01/25 05:50:54;;;;;;;10.07;6.23;;;;;;;-6.14;76.24;100827.33;1716753;83;21151;-74
2022/01/25 05:53:21;;;;;;;9.03;5.57;;;;;;;-6.21;76.02;100816.47;1695362;83;21033;-75
2022/01/25 05:55:47;;;;;;;7.43;5.17;;;;;;;-6.26;76.08;100823.36;1696039;83;21158;-75
2022/01/25 05:58:13;;;;;;;7.90;5.40;;;;;;;-6.31;76.04;100816.79;1721283;81;21185;-74
2022/01/25 06:00:40;;;;;;;15.50;8.20;;;;;;;-6.35;76.10;100829.28;1718363;83;20991;-76
2022/01/25 06:03:07;;;;;;;10.13;6.37;;;;;;;-6.38;76.08;100828.18;1718943;83;21055;-78
2022/01/25 06:05:35;;;;;;;30.77;13.07;;;;;;;-6.38;76.17;100820.83;1717329;83;21050;-78
2022/01/25 06:08:03;;;;;;;31.60;17.10;;;;;;;-6.33;76.14;100821.33;1716032;83;21554;-76
2022/01/25 06:10:30;;;;;;;14.67;8.37;;;;;;;-6.36;76.20;100830.69;1673232;83;21291;-75
2022/01/25 06:12:57;;;;;;;10.13;6.30;;;;;;;-6.37;76.20;100822.00;1695467;83;21009;-76
2022/01/25 06:15:25;;;;;;;22.20;11.97;;;;;;;-6.36;76.27;100828.91;1716583;83;20989;-71
2022/01/25 06:17:52;;;;;;;16.77;7.97;;;;;;;-6.30;76.32;100827.63;1695336;83;21045;-72
2022/01/25 06:20:18;;;;;;;17.50;10.97;;;;;;;-6.21;76.38;100823.85;1695958;83;21605;-71
2022/01/25 06:22:45;;;;;;;7.20;5.50;;;;;;;-6.30;76.00;100833.70;1716470;83;21179;-74
2022/01/25 06:25:12;;;;;;;7.53;5.50;;;;;;;-6.36;75.88;100828.91;1716551;83;21013;-76
2022/01/25 06:27:39;;;;;;;9.57;6.17;;;;;;;-6.37;75.90;100816.77;1697866;82;21010;-74
2022/01/25 06:30:08;;;;;;;7.37;5.10;;;;;;;-6.35;75.95;100813.58;1704258;83;21515;-76
2022/01/25 06:32:35;;;;;;;7.77;6.03;;;;;;;-6.35;75.77;100799.66;1698402;83;21100;-77
2022/01/25 06:35:03;;;;;;;6.00;5.40;;;;;;;-6.35;75.65;100798.34;1703227;83;21084;-77
2022/01/25 06:37:29;;;;;;;7.73;5.57;;;;;;;-6.36;75.59;100805.83;1673478;84;21041;-77
2022/01/25 06:39:56;;;;;;;7.60;4.77;;;;;;;-6.35;75.57;100811.44;1670077;83;20978;-76
2022/01/25 06:42:23;;;;;;;10.33;8.33;;;;;;;-6.38;75.52;100815.09;1726597;82;21043;-76
2022/01/25 06:44:54;;;;;;;7.43;5.30;;;;;;;-6.39;75.34;100814.76;1735517;82;21046;-77
2022/01/25 06:47:18;;;;;;;9.30;6.67;;;;;;;-6.41;75.30;100811.88;1735241;82;21563;-77
2022/01/25 06:49:44;;;;;;;9.23;6.03;;;;;;;-6.45;75.38;100809.97;1697186;83;20990;-76
2022/01/25 06:52:11;;;;;;;12.20;6.23;;;;;;;-6.39;75.55;100798.22;1703545;83;21055;-76
2022/01/25 06:54:38;;;;;;;10.33;5.20;;;;;;;-6.30;75.58;100797.06;1706784;83;21044;-81
2022/01/25 06:57:05;;;;;;;10.03;7.57;;;;;;;-6.22;75.52;100781.60;1727742;83;21013;-76
2022/01/25 06:59:31;;;;;;;7.33;4.73;;;;;;;-6.10;75.54;100780.33;1703867;83;21140;-79
2022/01/25 07:01:57;;;;;;;10.63;7.23;;;;;;;-5.96;75.51;100782.25;1687931;83;20980;-78
2022/01/25 07:04:24;;;;;;;9.63;6.13;;;;;;;-5.83;75.41;100776.86;1724994;83;21050;-81
2022/01/25 07:06:50;;;;;;;7.53;4.97;;;;;;;-5.66;74.95;100789.50;1720367;83;21013;-78
2022/01/25 07:09:16;;;;;;;8.87;5.87;;;;;;;-5.57;74.37;100784.85;1692736;83;21028;-79
2022/01/25 07:11:42;;;;;;;7.70;6.30;;;;;;;-5.56;73.91;100782.56;1724625;83;22104;-78
2022/01/25 07:14:09;;;;;;;9.50;6.20;;;;;;;-5.55;73.56;100782.92;1724900;83;20991;-78
2022/01/25 07:16:37;;;;;;;9.10;6.73;;;;;;;-5.60;73.06;100778.99;1694317;83;21026;-80
2022/01/25 07:19:03;;;;;;;7.70;6.17;;;;;;;-5.64;73.08;100771.86;1716097;83;21043;-78
2022/01/25 07:21:30;;;;;;;10.23;7.43;;;;;;;-5.65;72.96;100767.56;1716359;83;21104;-78
2022/01/25 07:23:56;;;;;;;9.93;6.50;;;;;;;-5.67;72.90;100756.39;1716246;83;21181;-76
2022/01/25 07:26:22;;;;;;;13.93;8.13;;;;;;;-5.74;72.73;100756.49;1695465;83;21071;-78
2022/01/25 07:28:49;;;;;;;10.07;7.40;;;;;;;-5.72;73.14;100754.60;1725125;82;20990;-77
2022/01/25 07:31:16;;;;;;;9.37;7.57;;;;;;;-5.65;73.05;100755.77;1691539;84;21620;-77
2022/01/25 07:33:42;;;;;;;10.37;6.87;;;;;;;-5.68;72.87;100755.19;1702189;83;21524;-75
2022/01/25 07:36:08;;;;;;;7.60;5.73;;;;;;;-5.73;72.87;100753.77;1702260;83;21089;-77
2022/01/25 07:38:36;;;;;;;7.90;6.70;;;;;;;-5.65;73.01;100762.80;1712355;83;21550;-81
2022/01/25 07:41:02;;;;;;;10.17;6.73;;;;;;;-5.64;72.82;100762.69;1701019;83;21112;-78
2022/01/25 07:43:28;;;;;;;10.87;6.53;;;;;;;-5.64;72.76;100753.52;1692910;83;21634;-76
2022/01/25 07:45:58;;;;;;;12.03;8.50;;;;;;;-5.66;72.66;100755.91;1692814;83;21080;-76
2022/01/25 07:48:24;;;;;;;9.03;7.27;;;;;;;-5.60;72.90;100756.72;1717910;83;21238;-77
2022/01/25 07:50:53;;;;;;;9.53;7.57;;;;;;;-5.58;72.71;100747.80;1728817;82;20978;-76
2022/01/25 07:53:19;;;;;;;9.40;6.97;;;;;;;-5.54;72.47;100756.25;1692282;84;21062;-77
2022/01/25 07:55:45;;;;;;;9.27;6.60;;;;;;;-5.50;72.28;100762.44;1710345;83;21050;-77
2022/01/25 07:58:12;;;;;;;7.77;6.83;;;;;;;-5.47;72.21;100750.42;1696302;84;21351;-77
2022/01/25 08:00:38;;;;;;;9.23;7.00;;;;;;;-5.42;71.85;100741.68;1691969;84;21054;-74
2022/01/25 08:03:04;;;;;;;8.73;6.77;;;;;;;-5.41;71.87;100740.73;1693225;84;21026;-72
2022/01/25 08:05:31;;;;;;;7.70;6.03;;;;;;;-5.33;71.73;100741.45;1716122;82;21043;-75
2022/01/25 08:08:01;;;;;;;10.30;6.57;;;;;;;-5.32;71.33;100730.83;1698670;83;21051;-80
2022/01/25 08:10:28;;;;;;;10.40;6.60;;;;;;;-5.36;71.19;100733.34;1717510;83;21154;-75
2022/01/25 08:12:54;;;;;;;8.37;5.83;;;;;;;-5.35;71.11;100731.55;1704256;83;20975;-77
2022/01/25 08:15:24;;;;;;;12.10;7.40;;;;;;;-5.36;70.91;100722.02;1703869;83;20952;-74
2022/01/25 08:17:49;;;;;;;9.50;7.00;;;;;;;-5.39;70.74;100719.66;1715225;83;21023;-76
2022/01/25 08:20:15;;;;;;;8.90;6.83;;;;;;;-5.43;70.92;100712.99;1700167;83;21504;-75
2022/01/25 08:22:44;;;;;;;12.10;7.37;;;;;;;-5.44;70.96;100706.92;1696763;84;20984;-75
2022/01/25 08:25:10;;;;;;;9.83;6.97;;;;;;;-5.41;71.16;100693.55;1688874;83;21285;-73
2022/01/25 08:27:36;;;;;;;7.53;5.67;;;;;;;-5.32;71.18;100692.81;1700526;83;20943;-74
2022/01/25 08:30:05;;;;;;;9.43;7.07;;;;;;;-5.20;71.16;100704.59;1725302;81;20888;-80
2022/01/25 08:32:33;;;;;;;8.33;6.87;;;;;;;-5.13;70.94;100697.90;1677061;83;20966;-79
2022/01/25 08:35:00;;;;;;;8.83;7.10;;;;;;;-5.12;70.59;100698.23;1697646;83;21576;-77
2022/01/25 08:37:27;;;;;;;10.13;6.37;;;;;;;-5.09;70.81;100687.03;1685674;84;21504;-76
2022/01/25 08:39:53;;;;;;;9.23;5.23;;;;;;;-5.07;70.33;100700.00;1702954;83;20995;-74
2022/01/25 08:42:20;;;;;;;9.73;6.37;;;;;;;-5.13;69.95;100699.22;1716733;83;21323;-81
2022/01/25 08:44:46;;;;;;;9.70;7.13;;;;;;;-5.21;69.95;100701.13;1692990;83;21104;-82
2022/01/25 08:47:12;;;;;;;10.67;6.60;;;;;;;-5.21;70.15;100695.05;1700530;83;21022;-80
2022/01/25 08:49:39;;;;;;;10.03;7.37;;;;;;;-5.18;70.06;100702.69;1724054;83;20967;-78
2022/01/25 08:52:06;;;;;;;6.90;5.43;;;;;;;-5.19;69.94;100704.47;1725485;83;20958;-78
2022/01/25 08:54:33;;;;;;;7.03;5.53;;;;;;;-5.23;69.60;100706.16;1725445;83;21047;-78
2022/01/25 08:57:02;;;;;;;8.17;6.90;;;;;;;-5.32;69.54;100684.11;1716002;82;21045;-82
2022/01/25 08:59:28;;;;;;;10.13;7.03;;;;;;;-5.40;69.56;100679.50;1714304;82;21039;-77
2022/01/25 09:01:54;;;;;;;8.40;6.67;;;;;;;-5.42;69.86;100670.11;1715800;83;21114;-77
2022/01/25 09:04:21;;;;;;;10.17;7.83;;;;;;;-5.37;69.99;100664.82;1708590;83;21668;-79
2022/01/25 09:06:47;;;;;;;11.83;7.87;;;;;;;-5.35;69.98;100664.23;1708389;82;21060;-79
2022/01/25 09:09:14;;;;;;;11.33;6.07;;;;;;;-5.27;70.03;100663.60;1687881;84;21026;-77
2022/01/25 09:11:41;;;;;;;7.00;6.03;;;;;;;-5.27;69.87;100657.55;1722309;82;21051;-76
2022/01/25 09:14:09;;;;;;;13.40;7.50;;;;;;;-5.21;70.10;100649.16;1684823;83;21594;-75
2022/01/25 09:16:37;;;;;;;6.13;5.53;;;;;;;-5.08;70.17;100643.26;1715484;83;21564;-75
2022/01/25 09:19:03;;;;;;;8.63;6.80;;;;;;;-4.97;69.58;100644.52;1711286;83;21012;-76
2022/01/25 09:21:30;;;;;;;8.70;6.40;;;;;;;-4.99;69.51;100642.52;1706388;83;21059;-78
2022/01/25 09:23:57;;;;;;;8.03;6.90;;;;;;;-5.09;68.62;100639.00;1704811;84;21707;-78
2022/01/25 09:26:24;;;;;;;12.83;8.07;;;;;;;-5.32;69.03;100632.52;1708540;83;21137;-76
2022/01/25 09:28:53;;;;;;;10.03;7.80;;;;;;;-5.34;69.62;100632.30;1727228;82;21003;-76
2022/01/25 09:31:19;;;;;;;12.53;8.20;;;;;;;-5.24;69.81;100636.31;1709338;83;20947;-77
2022/01/25 09:33:45;;;;;;;8.73;7.77;;;;;;;-5.20;69.53;100640.34;1707621;83;21010;-80
2022/01/25 09:36:12;;;;;;;12.77;8.73;;;;;;;-5.28;69.55;100642.30;1679480;83;21511;-79
2022/01/25 09:38:38;;;;;;;10.73;8.40;;;;;;;-5.37;69.83;100633.37;1704286;83;21040;-79
2022/01/25 09:41:04;;;;;;;9.53;7.60;;;;;;;-5.40;70.04;100634.10;1728595;82;21025;-77
2022/01/25 09:43:31;;;;;;;11.43;8.30;;;;;;;-5.43;70.12;100627.34;1698119;84;20947;-80
2022/01/25 09:45:58;;;;;;;9.90;7.90;;;;;;;-5.44;70.38;100619.59;1684132;83;21049;-80
2022/01/25 09:48:24;;;;;;;11.73;7.67;;;;;;;-5.32;70.57;100608.92;1644791;84;21089;-82
2022/01/25 09:50:50;;;;;;;10.67;8.40;;;;;;;-5.34;69.97;100610.02;1698070;83;21502;-80
2022/01/25 09:53:17;;;;;;;10.63;7.70;;;;;;;-5.29;70.37;100601.30;1681368;84;21592;-79
2022/01/25 09:55:44;;;;;;;13.50;8.90;;;;;;;-5.14;70.45;100593.48;1681693;84;21378;-74
2022/01/25 09:58:15;;;;;;;11.33;8.33;;;;;;;-5.05;69.76;100586.64;1683558;84;20956;-83
2022/01/25 10:00:45;;;;;;;11.97;7.47;;;;;;;-4.99;69.79;100580.38;1726592;81;21038;-78
2022/01/25 10:03:34;;;;;;;16.87;9.43;;;;;;;-4.84;69.78;100573.02;1704626;83;21179;-81
2022/01/25 10:06:02;;;;;;;12.93;9.80;;;;;;;-4.74;69.18;100573.06;1703693;83;21607;-77
2022/01/25 10:08:37;;;;;;;12.93;9.93;;;;;;;-4.76;68.78;100574.53;1727145;83;21591;-85
2022/01/25 10:11:06;;;;;;;12.97;10.03;;;;;;;-4.75;68.82;100575.36;1731728;81;20986;-78
2022/01/25 10:13:38;;;;;;;14.47;9.73;;;;;;;-4.76;68.69;100575.01;1735787;82;20932;-78
2022/01/25 10:16:10;;;;;;;17.13;12.40;;;;;;;-4.87;68.44;100574.59;1730930;82;21141;-76
2022/01/25 10:18:54;;;;;;;;;;;;;;;-4.80;68.83;100570.98;1701090;83;21026;-76
2022/01/25 10:21:30;;;;;;;23.67;10.68;;;;;;;-4.68;68.54;100569.45;1723042;83;20214;-79
2022/01/25 10:24:18;;;;;;;16.93;12.13;;;;;;;-4.54;68.55;100566.95;1722839;83;21504;-77
2022/01/25 10:26:58;;;;;;;11.97;9.97;;;;;;;-4.35;68.43;100574.08;1699800;84;21026;-78
2022/01/25 10:29:31;;;;;;;18.07;12.27;;;;;;;-4.30;67.25;100562.69;1696315;84;21013;-77
2022/01/25 10:32:06;;;;;;;;;;;;;;;-4.52;67.08;100561.94;1680044;85;21029;-80
2022/01/25 10:34:43;;;;;;;17.47;12.27;;;;;;;-4.54;67.61;100553.83;1662355;83;26999;-78
2022/01/25 10:37:14;;;;;;;20.27;12.60;;;;;;;-4.59;67.31;100548.98;1700653;82;20960;-80
2022/01/25 10:39:44;;;;;;;19.27;13.88;;;;;;;-4.65;67.74;100536.38;1681610;83;21572;-79
2022/01/25 10:42:20;;;;;;;17.17;12.40;;;;;;;-4.70;67.73;100533.31;1732227;82;22895;-80
2022/01/25 10:44:48;;;;;;;21.67;13.90;;;;;;;-4.63;68.13;100529.69;1688920;84;20983;-75
2022/01/25 10:47:15;;;;;;;22.47;16.03;;;;;;;-4.58;67.64;100527.03;1656376;82;21073;-76
2022/01/25 10:49:49;;;;;;;20.07;12.53;;;;;;;-4.58;67.46;100527.03;1711664;83;21029;-76
2022/01/25 10:52:26;;;;;;;17.50;13.50;;;;;;;-4.53;67.49;100524.00;1713306;83;21052;-82
2022/01/25 10:54:53;;;;;;;24.63;13.60;;;;;;;-4.43;67.56;100515.68;1691310;83;21179;-80
2022/01/25 10:57:23;;;;;;;20.87;14.87;;;;;;;-4.25;67.42;100518.48;1700248;84;21056;-76
2022/01/25 11:00:00;;;;;;;20.13;13.83;;;;;;;-4.16;67.09;100511.11;1709185;83;20945;-78
2022/01/25 11:02:27;;;;;;;20.37;14.97;;;;;;;-4.09;66.45;100510.45;1706543;83;21509;-79
2022/01/25 11:05:09;;;;;;;18.93;14.57;;;;;;;-4.11;65.96;100504.48;1709257;84;21080;-79
2022/01/25 11:07:38;;;;;;;;;;;;;;;-4.06;65.66;100499.66;1736174;82;21164;-78
2022/01/25 11:10:05;;;;;;;21.80;15.93;;;;;;;-4.07;65.82;100500.61;1685867;82;20587;-79
2022/01/25 11:12:38;;;;;;;42.00;24.87;;;;;;;-4.01;65.46;100496.14;1684077;83;21636;-77
2022/01/25 11:15:02;;;;;;;30.93;17.53;;;;;;;-4.06;65.10;100485.20;1709651;82;21112;-74
2022/01/25 11:17:31;;;;;;;25.43;17.43;;;;;;;-4.07;65.34;100489.27;1699731;82;21030;-74
2022/01/25 11:19:59;;;;;;;24.17;16.53;;;;;;;-4.09;65.26;100487.28;1659739;83;21174;-73
2022/01/25 11:22:26;;;;;;;24.47;16.13;;;;;;;-4.03;65.42;100480.18;1714097;82;20969;-72
2022/01/25 11:24:56;;;;;;;24.13;15.87;;;;;;;-3.89;65.40;100482.88;1687267;84;21037;-74
2022/01/25 11:27:25;;;;;;;24.60;15.07;;;;;;;-3.76;65.00;100482.11;1712829;82;21048;-73
2022/01/25 11:29:54;;;;;;;28.20;17.60;;;;;;;-3.78;64.31;100470.41;1706188;83;21496;-72
2022/01/25 11:32:24;;;;;;;20.67;14.67;;;;;;;-3.86;64.38;100470.29;1712018;82;21194;-74
2022/01/25 11:34:51;;;;;;;24.50;17.40;;;;;;;-3.79;64.32;100467.44;1723464;83;21545;-76
2022/01/25 11:37:17;;;;;;;22.73;16.47;;;;;;;-3.78;64.16;100469.58;1740288;81;21072;-73
2022/01/25 11:39:47;;;;;;;26.13;15.83;;;;;;;-3.71;64.00;100467.59;1734840;82;21053;-75
2022/01/25 11:42:21;;;;;;;28.60;17.43;;;;;;;-3.58;63.74;100465.98;1724766;83;20992;-73
2022/01/25 11:44:53;;;;;;;28.83;17.23;;;;;;;-3.50;63.07;100458.20;1725607;83;21987;-71
2022/01/25 11:47:32;;;;;;;23.47;17.27;;;;;;;-3.46;63.06;100443.84;1726671;82;21036;-73
2022/01/25 11:50:03;;;;;;;29.30;18.77;;;;;;;-3.40;62.93;100433.21;1725084;83;21043;-75
2022/01/25 11:52:30;;;;;;;24.57;16.97;;;;;;;-3.32;62.94;100430.23;1700076;83;21026;-89
2022/01/25 11:55:22;;;;;;;22.07;16.07;;;;;;;-3.22;62.91;100431.52;1708343;83;21102;-86
2022/01/25 11:58:06;;;;;;;25.37;16.23;;;;;;;-3.08;62.48;100420.54;1713533;83;21574;-88
2022/01/25 12:00:55;;;;;;;23.43;17.27;;;;;;;-3.12;61.50;100417.86;1729621;82;20986;-89
2022/01/25 12:03:39;;;;;;;25.33;16.97;;;;;;;-3.26;61.38;100407.80;1710484;83;20958;-84
2022/01/25 12:06:22;;;;;;;28.90;19.37;;;;;;;-3.42;61.66;100407.08;1706229;83;20993;-84
2022/01/25 12:11:47;;;;;;;28.07;17.33;;;;;;;-3.33;61.96;100388.30;1714939;83;21472;-85
2022/01/25 12:14:31;;;;;;;33.10;18.30;;;;;;;-3.19;61.66;100395.72;1709554;83;21033;-84
2022/01/25 12:17:05;;;;;;;30.23;17.00;;;;;;;-3.14;61.08;100402.69;1727665;82;21063;-83
2022/01/25 12:19:51;;;;;;;24.60;16.97;;;;;;;-3.00;60.96;100401.38;1730131;82;20982;-82
2022/01/25 12:22:37;;;;;;;18.83;12.90;;;;;;;-2.88;60.65;100393.66;1743893;82;21036;-82
2022/01/25 12:25:25;;;;;;;22.40;16.57;;;;;;;-2.81;59.89;100385.02;1698012;83;21046;-84
2022/01/25 12:27:58;;;;;;;22.13;14.77;;;;;;;-2.87;60.07;100378.18;1730488;82;21007;-82
2022/01/25 12:30:44;;;;;;;22.43;15.33;;;;;;;-2.79;59.70;100373.03;1730734;81;21047;-77
2022/01/25 12:33:24;;;;;;;28.57;18.63;;;;;;;-2.81;59.39;100377.11;1712515;83;21003;-81
2022/01/25 12:36:04;;;;;;;26.93;17.20;;;;;;;-2.87;59.48;100373.75;1686190;84;21044;-80
2022/01/25 12:38:51;;;;;;;23.40;16.33;;;;;;;-2.83;59.35;100371.67;1712161;83;21210;-72
2022/01/25 12:41:21;;;;;;;33.07;20.40;;;;;;;-2.88;59.11;100377.38;1694403;83;20972;-73
2022/01/25 12:43:53;;;;;;;24.83;16.37;;;;;;;-2.91;59.20;100373.70;1711525;83;21006;-73
2022/01/25 12:46:29;;;;;;;26.07;18.00;;;;;;;-2.89;59.15;100360.41;1716219;82;21561;-75
2022/01/25 12:49:03;;;;;;;19.83;14.27;;;;;;;-2.89;59.42;100358.61;1733510;82;20983;-74
2022/01/25 12:51:33;;;;;;;29.57;17.00;;;;;;;-2.83;59.07;100356.68;1696395;83;21278;-75
2022/01/25 12:54:03;;;;;;;43.27;20.23;;;;;;;-2.85;58.80;100355.19;1672474;83;21012;-75
2022/01/25 12:56:34;;;;;;;30.67;17.73;;;;;;;-2.91;59.00;100346.08;1714228;83;20980;-76
2022/01/25 12:59:05;;;;;;;34.23;17.07;;;;;;;-2.94;59.07;100347.70;1712990;82;20987;-75
2022/01/25 13:01:32;;;;;;;33.50;19.40;;;;;;;-3.04;59.14;100361.87;1712860;83;21090;-78
2022/01/25 13:04:00;;;;;;;25.73;18.77;;;;;;;-3.09;59.37;100362.31;1692547;82;21005;-77
2022/01/25 13:06:38;;;;;;;22.57;15.90;;;;;;;-3.13;59.52;100363.58;1679825;84;21007;-75
2022/01/25 13:09:20;;;;;;;26.33;14.10;;;;;;;-3.13;59.47;100362.27;1712192;83;21774;-72
2022/01/25 13:17:18;;;;;;;25.05;15.48;;;;;;;-3.46;60.43;100367.59;1704290;83;21200;-80
2022/01/25 13:19:54;;;;;;;27.93;17.83;;;;;;;-3.46;60.54;100364.12;1680822;84;21031;-76